createdAt,value
2023-02-25T00:01:15.741Z,99830.25
2023-02-25T00:03:43.943Z,99827.53
2023-02-25T00:06:13.760Z,99816.31
2023-02-25T00:08:44.855Z,99820.03
2023-02-25T00:11:13.797Z,99826.25
2023-02-25T00:13:42.886Z,99805.13
2023-02-25T00:16:12.832Z,99813.50
2023-02-25T00:18:44.255Z,99823.03
2023-02-25T00:21:15.293Z,99826.13
2023-02-25T00:23:44.998Z,99830.19
2023-02-25T00:26:13.088Z,99830.19
2023-02-25T00:28:41.429Z,99824.69
2023-02-25T00:31:10.447Z,99827.53
2023-02-25T00:33:42.267Z,99830.63
2023-02-25T00:36:11.749Z,99825.75
2023-02-25T00:38:40.428Z,99827.06
2023-02-25T00:41:12.551Z,99817.16
2023-02-25T00:43:42.308Z,99830.88
2023-02-25T00:46:11.670Z,99822.56
2023-02-25T00:48:42.070Z,99825.88
2023-02-25T00:51:11.466Z,99824.72
2023-02-25T00:53:39.717Z,99818.72
2023-02-25T00:56:09.078Z,99788.50
2023-02-25T00:58:37.628Z,99826.34
2023-02-25T01:01:06.962Z,99823.97
2023-02-25T01:03:34.926Z,99794.31
2023-02-25T01:06:04.707Z,99819.34
2023-02-25T01:08:32.678Z,99828.03
2023-02-25T01:11:10.619Z,99822.28
2023-02-25T01:13:38.428Z,99819.91
2023-02-25T01:16:13.063Z,99821.47
2023-02-25T01:18:42.292Z,99766.91
2023-02-25T01:21:17.610Z,99825.16
2023-02-25T01:23:46.409Z,99810.88
2023-02-25T01:26:16.106Z,99812.50
2023-02-25T01:28:44.227Z,99818.72
2023-02-25T01:31:18.534Z,99810.38
2023-02-25T01:33:49.992Z,99823.00
2023-02-25T01:36:22.370Z,99810.72
2023-02-25T01:38:50.384Z,99830.88
2023-02-25T01:41:20.752Z,99833.94
2023-02-25T01:44:07.447Z,99829.88
2023-02-25T01:46:36.128Z,99844.41
2023-02-25T01:49:13.684Z,99836.28
2023-02-25T01:51:44.633Z,99837.94
2023-02-25T01:54:15.350Z,99823.78
2023-02-25T01:56:49.026Z,99843.47
2023-02-25T01:59:17.993Z,99840.34
2023-02-25T02:01:46.221Z,99843.06
2023-02-25T02:04:16.160Z,99831.75
2023-02-25T02:06:48.013Z,99822.25
2023-02-25T02:09:22.315Z,99837.28
2023-02-25T02:11:52.050Z,99731.66
2023-02-25T02:14:26.887Z,99836.53
2023-02-25T02:17:17.746Z,99835.22
2023-02-25T02:20:15.301Z,99839.78
2023-02-25T02:22:55.710Z,99794.41
2023-02-25T02:25:58.070Z,99831.75
2023-02-25T02:29:03.278Z,99821.50
2023-02-25T02:31:42.577Z,99818.72
2023-02-25T02:34:28.305Z,99829.63
2023-02-25T02:37:05.529Z,99823.84
2023-02-25T02:39:48.888Z,99842.00
2023-02-25T02:42:27.321Z,99837.41
2023-02-25T02:45:05.471Z,99838.50
2023-02-25T02:47:40.617Z,99835.16
2023-02-25T02:50:15.308Z,99825.47
2023-02-25T02:52:48.619Z,99839.66
2023-02-25T02:55:22.984Z,99837.78
2023-02-25T02:57:59.120Z,99834.31
2023-02-25T03:00:30.304Z,99830.25
2023-02-25T03:03:05.318Z,99817.63
2023-02-25T03:05:35.873Z,99838.47
2023-02-25T03:08:15.373Z,99839.25
2023-02-25T03:10:43.173Z,99845.31
2023-02-25T03:13:11.716Z,99846.41
2023-02-25T03:15:42.191Z,99845.34
2023-02-25T03:18:33.283Z,99842.13
2023-02-25T03:21:04.769Z,99843.69
2023-02-25T03:23:35.066Z,99840.00
2023-02-25T03:26:12.999Z,99830.59
2023-02-25T03:28:45.211Z,99838.78
2023-02-25T03:31:21.720Z,99833.59
2023-02-25T03:33:55.023Z,99814.03
2023-02-25T03:36:28.445Z,99841.75
2023-02-25T03:39:00.622Z,99817.91
2023-02-25T03:41:35.429Z,99831.28
2023-02-25T03:44:05.207Z,99829.06
2023-02-25T03:46:34.363Z,99846.28
2023-02-25T03:49:05.352Z,99856.00
2023-02-25T03:51:41.638Z,99842.94
2023-02-25T03:54:09.587Z,99846.53
2023-02-25T03:56:45.700Z,99850.56
2023-02-25T03:59:14.288Z,99854.53
2023-02-25T04:01:44.578Z,99852.66
2023-02-25T04:04:13.805Z,99861.75
2023-02-25T04:06:41.773Z,99860.44
2023-02-25T04:09:09.538Z,99857.69
2023-02-25T04:11:37.292Z,99861.03
2023-02-25T04:14:05.280Z,99847.47
2023-02-25T04:16:33.464Z,99864.81
2023-02-25T04:19:03.248Z,99866.25
2023-02-25T04:21:35.247Z,99872.91
2023-02-25T04:24:03.212Z,99855.06
2023-02-25T04:26:31.089Z,99873.81
2023-02-25T04:29:15.364Z,99880.91
2023-02-25T04:31:43.378Z,99884.59
2023-02-25T04:34:11.186Z,99879.09
2023-02-25T04:36:41.496Z,99889.00
2023-02-25T04:39:09.305Z,99889.00
2023-02-25T04:41:37.213Z,99882.22
2023-02-25T04:44:06.943Z,99884.47
2023-02-25T04:46:36.672Z,99872.97
2023-02-25T04:49:05.073Z,99881.72
2023-02-25T04:51:33.921Z,99869.59
2023-02-25T04:54:02.990Z,99880.28
2023-02-25T04:56:30.715Z,99877.84
2023-02-25T04:58:58.902Z,99877.59
2023-02-25T05:01:26.682Z,99875.19
2023-02-25T05:03:56.859Z,99875.47
2023-02-25T05:06:25.452Z,99874.50
2023-02-25T05:08:53.365Z,99879.03
2023-02-25T05:11:24.164Z,99871.13
2023-02-25T05:13:52.186Z,99867.25
2023-02-25T05:16:20.603Z,99869.00
2023-02-25T05:18:48.813Z,99871.50
2023-02-25T05:21:18.681Z,99879.16
2023-02-25T05:23:47.706Z,99871.72
2023-02-25T05:26:16.607Z,99869.81
2023-02-25T05:28:45.714Z,99869.72
2023-02-25T05:31:14.072Z,99870.19
2023-02-25T05:33:42.148Z,99865.78
2023-02-25T05:36:12.574Z,99867.81
2023-02-25T05:38:40.804Z,99868.69
2023-02-25T05:41:09.848Z,99864.50
2023-02-25T05:43:39.097Z,99876.25
2023-02-25T05:46:11.932Z,99876.75
2023-02-25T05:48:41.190Z,99878.44
2023-02-25T05:51:12.562Z,99870.81
2023-02-25T05:53:40.761Z,99884.38
2023-02-25T05:56:12.312Z,99880.78
2023-02-25T05:58:40.067Z,99879.59
2023-02-25T06:01:17.902Z,99872.34
2023-02-25T06:03:47.685Z,99881.28
2023-02-25T06:06:17.928Z,99876.72
2023-02-25T06:08:45.812Z,99887.19
2023-02-25T06:11:18.342Z,99894.97
2023-02-25T06:13:46.106Z,99875.94
2023-02-25T06:16:15.723Z,99897.88
2023-02-25T06:18:43.835Z,99902.78
2023-02-25T06:21:14.178Z,99907.56
2023-02-25T06:23:43.861Z,99877.78
2023-02-25T06:26:14.173Z,99876.16
2023-02-25T06:28:42.344Z,99890.56
2023-02-25T06:31:11.700Z,99898.84
2023-02-25T06:33:41.211Z,99896.63
2023-02-25T06:36:10.158Z,99891.13
2023-02-25T06:38:38.181Z,99902.91
2023-02-25T06:41:10.020Z,99918.81
2023-02-25T06:43:38.150Z,99922.06
2023-02-25T06:46:08.121Z,99915.19
2023-02-25T06:48:35.953Z,99913.63
2023-02-25T06:51:09.146Z,99922.38
2023-02-25T06:53:37.008Z,99925.25
2023-02-25T06:56:05.372Z,99935.28
2023-02-25T06:58:37.954Z,99928.34
2023-02-25T07:01:07.566Z,99939.34
2023-02-25T07:03:35.466Z,99935.63
2023-02-25T07:06:04.966Z,99940.97
2023-02-25T07:08:33.155Z,99944.81
2023-02-25T07:11:15.270Z,99920.63
2023-02-25T07:13:43.841Z,99945.63
2023-02-25T07:16:23.060Z,99943.72
2023-02-25T07:18:51.206Z,99946.59
2023-02-25T07:21:20.620Z,99961.38
2023-02-25T07:23:48.449Z,99959.81
2023-02-25T07:26:17.739Z,99972.19
2023-02-25T07:28:45.845Z,99945.25
2023-02-25T07:31:15.868Z,99966.22
2023-02-25T07:33:44.491Z,99962.38
2023-02-25T07:36:13.787Z,99942.28
2023-02-25T07:38:45.778Z,99951.44
2023-02-25T07:41:18.082Z,99949.75
2023-02-25T07:43:46.240Z,99937.28
2023-02-25T07:46:14.386Z,99952.47
2023-02-25T07:48:42.621Z,99952.09
2023-02-25T07:51:13.031Z,99958.56
2023-02-25T07:53:41.394Z,99969.44
2023-02-25T07:56:11.892Z,99967.88
2023-02-25T07:58:40.734Z,99968.63
2023-02-25T08:01:09.815Z,99967.69
2023-02-25T08:03:38.149Z,99954.97
2023-02-25T08:06:08.309Z,99966.81
2023-02-25T08:08:36.609Z,99959.44
2023-02-25T08:11:06.749Z,99974.19
2023-02-25T08:13:35.992Z,99969.16
2023-02-25T08:16:05.450Z,99965.59
2023-02-25T08:18:33.277Z,99963.81
2023-02-25T08:21:02.895Z,99964.66
2023-02-25T08:23:31.640Z,99983.16
2023-02-25T08:26:00.553Z,99979.47
2023-02-25T08:28:34.361Z,99973.31
2023-02-25T08:31:07.602Z,99983.16
2023-02-25T08:33:39.647Z,99957.53
2023-02-25T08:36:10.105Z,99980.53
2023-02-25T08:38:39.864Z,99983.19
2023-02-25T08:41:08.720Z,99981.72
2023-02-25T08:43:37.411Z,99966.97
2023-02-25T08:46:10.157Z,99975.13
2023-02-25T08:48:38.604Z,99976.41
2023-02-25T08:51:08.521Z,99990.63
2023-02-25T08:53:37.129Z,99996.69
2023-02-25T08:56:05.386Z,99979.16
2023-02-25T08:58:33.658Z,99915.03
2023-02-25T09:01:01.859Z,99994.34
2023-02-25T09:03:51.149Z,100000.34
2023-02-25T09:06:19.386Z,99982.00
2023-02-25T09:08:47.201Z,99972.69
2023-02-25T09:11:14.956Z,99992.63
2023-02-25T09:13:42.914Z,99990.25
2023-02-25T09:16:11.435Z,100000.78
2023-02-25T09:18:40.537Z,99990.41
2023-02-25T09:21:08.620Z,99996.22
2023-02-25T09:23:36.457Z,99997.03
2023-02-25T09:26:04.961Z,100007.38
2023-02-25T09:28:32.703Z,100013.16
2023-02-25T09:31:02.525Z,99981.19
2023-02-25T09:33:31.583Z,100022.50
2023-02-25T09:36:08.498Z,100017.03
2023-02-25T09:38:36.882Z,100019.78
2023-02-25T09:41:05.757Z,100023.78
2023-02-25T09:43:40.610Z,100022.19
2023-02-25T09:46:11.255Z,100030.03
2023-02-25T09:48:55.722Z,100034.34
2023-02-25T09:51:29.025Z,100008.66
2023-02-25T09:54:03.210Z,100035.59
2023-02-25T09:56:31.763Z,100035.38
2023-02-25T09:59:02.643Z,100021.53
2023-02-25T10:01:36.325Z,100049.94
2023-02-25T10:04:14.896Z,100058.13
2023-02-25T10:06:57.606Z,100062.03
2023-02-25T10:09:34.583Z,100069.19
2023-02-25T10:12:13.294Z,100063.50
2023-02-25T10:15:06.169Z,100055.03
2023-02-25T10:17:44.486Z,100054.91
2023-02-25T10:20:40.258Z,100060.41
2023-02-25T10:23:25.323Z,100047.53
2023-02-25T10:25:58.546Z,100062.22
2023-02-25T10:28:27.690Z,100066.63
2023-02-25T10:31:00.619Z,100070.91
2023-02-25T10:33:32.334Z,100072.72
2023-02-25T10:36:08.736Z,100071.41
2023-02-25T10:38:43.216Z,100067.34
2023-02-25T10:41:10.959Z,100074.00
2023-02-25T10:43:38.887Z,100078.16
2023-02-25T10:46:14.092Z,100093.03
2023-02-25T10:48:45.231Z,100101.91
2023-02-25T10:51:15.293Z,100111.88
2023-02-25T10:54:04.895Z,100098.78
2023-02-25T10:56:39.854Z,100117.97
2023-02-25T10:59:09.390Z,100094.22
2023-02-25T11:01:40.472Z,100076.66
2023-02-25T11:04:13.336Z,100124.72
2023-02-25T11:06:42.739Z,100147.72
2023-02-25T11:09:31.050Z,100141.31
2023-02-25T11:12:01.419Z,100093.56
2023-02-25T11:14:31.291Z,100142.88
2023-02-25T11:17:06.580Z,100142.63
2023-02-25T11:19:39.519Z,100150.91
2023-02-25T11:22:10.930Z,100143.09
2023-02-25T11:24:42.812Z,100139.53
2023-02-25T11:27:26.863Z,100131.81
2023-02-25T11:30:01.239Z,100134.56
2023-02-25T11:32:29.734Z,100143.44
2023-02-25T11:35:04.938Z,100130.56
2023-02-25T11:37:37.566Z,100130.47
2023-02-25T11:40:25.157Z,100128.91
2023-02-25T11:43:04.587Z,100135.50
2023-02-25T11:45:35.070Z,100137.81
2023-02-25T11:48:04.335Z,100139.00
2023-02-25T11:50:38.633Z,100125.44
2023-02-25T11:53:17.677Z,100137.41
2023-02-25T11:55:57.149Z,100136.25
2023-02-25T11:58:37.433Z,100121.69
2023-02-25T12:01:14.381Z,100134.66
2023-02-25T12:03:58.501Z,100141.22
2023-02-25T12:06:41.112Z,100133.25
2023-02-25T12:09:39.805Z,100130.25
2023-02-25T12:12:56.904Z,100126.66
2023-02-25T12:16:12.430Z,100122.28
2023-02-25T12:19:04.415Z,100124.84
2023-02-25T12:22:14.831Z,100117.72
2023-02-25T12:24:51.730Z,100112.63
2023-02-25T12:27:51.008Z,100101.81
2023-02-25T12:31:00.240Z,100121.00
2023-02-25T12:33:58.662Z,100116.94
2023-02-25T12:36:44.571Z,100114.94
2023-02-25T12:39:23.981Z,100125.22
2023-02-25T12:42:00.401Z,100123.19
2023-02-25T12:44:58.769Z,100129.97
2023-02-25T12:47:40.654Z,100133.31
2023-02-25T12:50:44.795Z,100123.09
2023-02-25T12:53:41.315Z,100131.81
2023-02-25T12:56:33.864Z,100135.72
2023-02-25T12:59:27.508Z,100165.88
2023-02-25T13:02:18.910Z,100166.63
2023-02-25T13:05:10.704Z,100173.22
2023-02-25T13:08:06.510Z,100163.75
2023-02-25T13:10:42.279Z,100162.19
2023-02-25T13:13:42.090Z,100163.63
2023-02-25T13:16:22.425Z,100170.66
2023-02-25T13:19:06.070Z,100168.53
2023-02-25T13:21:50.082Z,100163.88
2023-02-25T13:24:34.783Z,100161.50
2023-02-25T13:27:29.547Z,100155.16
2023-02-25T13:30:15.763Z,100152.28
2023-02-25T13:32:51.228Z,100156.56
2023-02-25T13:35:37.393Z,100152.63
2023-02-25T13:38:20.323Z,100154.25
2023-02-25T13:41:04.210Z,100163.56
2023-02-25T13:43:44.187Z,100162.88
2023-02-25T13:46:37.300Z,100168.16
2023-02-25T13:49:34.167Z,100177.59
2023-02-25T13:52:20.282Z,100187.44
2023-02-25T13:55:22.495Z,100170.44
2023-02-25T13:58:04.157Z,100180.75
2023-02-25T14:01:00.913Z,100175.72
2023-02-25T14:03:58.491Z,100178.47
2023-02-25T14:06:42.745Z,100183.19
2023-02-25T14:09:28.103Z,100191.38
2023-02-25T14:12:12.395Z,100197.00
2023-02-25T14:15:21.604Z,100202.84
2023-02-25T14:18:13.062Z,100201.53
2023-02-25T14:20:50.223Z,100203.59
2023-02-25T14:23:26.821Z,100210.59
2023-02-25T14:26:14.448Z,100208.09
2023-02-25T14:28:51.217Z,100217.25
2023-02-25T14:31:24.646Z,100198.97
2023-02-25T14:34:17.428Z,100227.84
2023-02-25T14:37:14.757Z,100224.63
2023-02-25T14:39:59.036Z,100209.00
2023-02-25T14:42:46.054Z,100229.88
2023-02-25T14:45:21.608Z,100233.50
2023-02-25T14:47:58.021Z,100224.84
2023-02-25T14:50:30.616Z,100226.09
2023-02-25T14:53:11.562Z,100236.09
2023-02-25T14:56:04.608Z,100234.97
2023-02-25T14:58:58.330Z,100250.22
2023-02-25T15:01:45.227Z,100235.84
2023-02-25T15:04:51.328Z,100254.28
2023-02-25T15:07:39.489Z,100260.72
2023-02-25T15:10:30.628Z,100263.59
2023-02-25T15:13:32.890Z,100187.03
2023-02-25T15:16:22.986Z,100258.84
2023-02-25T15:19:19.474Z,100255.00
2023-02-25T15:21:57.787Z,100263.22
2023-02-25T15:24:54.043Z,100269.28
2023-02-25T15:27:47.393Z,100245.31
2023-02-25T15:30:17.822Z,100269.13
2023-02-25T15:33:15.266Z,100267.75
2023-02-25T15:35:55.702Z,100277.09
2023-02-25T15:38:40.971Z,100286.44
2023-02-25T15:41:43.294Z,100288.16
2023-02-25T15:44:40.432Z,100297.38
2023-02-25T15:47:35.625Z,100297.75
2023-02-25T15:50:05.711Z,100288.56
2023-02-25T15:52:55.588Z,100309.38
2023-02-25T15:55:41.131Z,100312.34
2023-02-25T15:58:51.194Z,100301.13
2023-02-25T16:01:29.097Z,100313.09
2023-02-25T16:03:57.183Z,100299.44
2023-02-25T16:06:33.016Z,100332.06
2023-02-25T16:09:08.051Z,100304.66
2023-02-25T16:11:39.868Z,100333.13
2023-02-25T16:14:13.510Z,100317.34
2023-02-25T16:16:47.907Z,100336.19
2023-02-25T16:19:19.870Z,100349.31
2023-02-25T16:21:53.022Z,100350.47
2023-02-25T16:24:21.149Z,100355.84
2023-02-25T16:26:58.631Z,100366.94
2023-02-25T16:29:41.144Z,100362.88
2023-02-25T16:32:21.864Z,100368.34
2023-02-25T16:34:56.053Z,100373.75
2023-02-25T16:37:30.417Z,100374.31
2023-02-25T16:39:58.936Z,100378.31
2023-02-25T16:42:27.008Z,100379.00
2023-02-25T16:45:00.563Z,100386.25
2023-02-25T16:47:31.544Z,100384.94
2023-02-25T16:50:03.053Z,100389.94
2023-02-25T16:52:34.483Z,100396.59
2023-02-25T16:55:05.544Z,100391.31
2023-02-25T16:57:34.148Z,100399.06
2023-02-25T17:00:18.767Z,100409.69
2023-02-25T17:02:49.082Z,100396.47
2023-02-25T17:05:25.413Z,100417.97
2023-02-25T17:07:59.490Z,100422.59
2023-02-25T17:10:30.067Z,100428.78
2023-02-25T17:12:58.827Z,100429.13
2023-02-25T17:15:28.678Z,100431.25
2023-02-25T17:18:04.280Z,100406.75
2023-02-25T17:20:32.192Z,100423.94
2023-02-25T17:23:13.030Z,100442.81
2023-02-25T17:25:48.529Z,100448.47
2023-02-25T17:28:23.286Z,100457.28
2023-02-25T17:30:52.028Z,100443.06
2023-02-25T17:33:25.754Z,100455.09
2023-02-25T17:35:58.348Z,100457.94
2023-02-25T17:38:28.999Z,100460.25
2023-02-25T17:41:00.789Z,100467.38
2023-02-25T17:43:35.369Z,100473.78
2023-02-25T17:46:14.306Z,100467.06
2023-02-25T17:48:45.672Z,100469.47
2023-02-25T17:51:14.429Z,100485.84
2023-02-25T17:53:47.893Z,100479.22
2023-02-25T17:56:22.660Z,100465.66
2023-02-25T17:58:53.575Z,100490.31
2023-02-25T18:01:24.782Z,100490.44
2023-02-25T18:03:53.936Z,100500.06
2023-02-25T18:06:40.470Z,100500.56
2023-02-25T18:09:29.988Z,100512.19
2023-02-25T18:12:02.864Z,100507.16
2023-02-25T18:14:37.668Z,100495.28
2023-02-25T18:17:14.322Z,100515.59
2023-02-25T18:19:45.979Z,100521.78
2023-02-25T18:22:28.654Z,100517.91
2023-02-25T18:25:00.217Z,100516.94
2023-02-25T18:27:30.529Z,100522.47
2023-02-25T18:30:02.938Z,100528.38
2023-02-25T18:32:30.801Z,100517.81
2023-02-25T18:34:58.547Z,100535.72
2023-02-25T18:37:30.381Z,100539.28
2023-02-25T18:39:59.478Z,100545.28
2023-02-25T18:42:27.222Z,100547.44
2023-02-25T18:44:54.949Z,100544.63
2023-02-25T18:47:22.681Z,100508.31
2023-02-25T18:49:50.430Z,100556.25
2023-02-25T18:52:22.433Z,100555.50
2023-02-25T18:54:50.862Z,100554.84
2023-02-25T18:57:23.922Z,100561.16
2023-02-25T18:59:52.193Z,100563.13
2023-02-25T19:02:29.663Z,100567.44
2023-02-25T19:04:58.370Z,100571.63
2023-02-25T19:07:31.954Z,100523.50
2023-02-25T19:10:00.178Z,100579.91
2023-02-25T19:12:30.831Z,100584.38
2023-02-25T19:15:01.225Z,100579.34
2023-02-25T19:17:32.406Z,100563.38
2023-02-25T19:20:00.503Z,100589.22
2023-02-25T19:22:28.295Z,100590.06
2023-02-25T19:24:56.113Z,100585.88
2023-02-25T19:27:26.698Z,100597.16
2023-02-25T19:29:58.118Z,100594.78
2023-02-25T19:32:27.068Z,100599.53
2023-02-25T19:34:54.915Z,100589.06
2023-02-25T19:37:22.676Z,100591.84
2023-02-25T19:39:50.465Z,100590.75
2023-02-25T19:42:18.699Z,100607.47
2023-02-25T19:44:46.417Z,100607.81
2023-02-25T19:47:15.597Z,100596.53
2023-02-25T19:49:43.289Z,100617.66
2023-02-25T19:52:11.010Z,100606.63
2023-02-25T19:54:38.829Z,100624.75
2023-02-25T19:57:06.539Z,100625.09
2023-02-25T19:59:34.325Z,100626.97
2023-02-25T20:02:02.073Z,100636.78
2023-02-25T20:04:31.840Z,100628.19
2023-02-25T20:06:59.755Z,100636.13
2023-02-25T20:09:27.493Z,100638.16
2023-02-25T20:11:55.264Z,100584.63
2023-02-25T20:14:25.118Z,100610.13
2023-02-25T20:16:52.889Z,100616.44
2023-02-25T20:19:20.839Z,100640.75
2023-02-25T20:21:49.982Z,100626.72
2023-02-25T20:24:17.725Z,100646.16
2023-02-25T20:26:45.401Z,100642.16
2023-02-25T20:29:13.170Z,100651.75
2023-02-25T20:31:41.404Z,100620.63
2023-02-25T20:34:14.586Z,100667.25
2023-02-25T20:36:51.679Z,100646.97
2023-02-25T20:39:49.317Z,100670.22
2023-02-25T20:42:19.983Z,100665.63
2023-02-25T20:44:51.153Z,100651.97
2023-02-25T20:47:22.058Z,100677.31
2023-02-25T20:49:50.885Z,100668.31
2023-02-25T20:52:19.975Z,100670.94
2023-02-25T20:54:49.850Z,100687.38
2023-02-25T20:57:20.054Z,100684.16
2023-02-25T20:59:49.138Z,100689.22
2023-02-25T21:02:17.791Z,100696.47
2023-02-25T21:04:45.951Z,100694.03
2023-02-25T21:07:14.054Z,100697.00
2023-02-25T21:09:42.064Z,100696.81
2023-02-25T21:12:11.796Z,100701.88
2023-02-25T21:14:40.680Z,100702.63
2023-02-25T21:17:13.455Z,100702.03
2023-02-25T21:19:41.519Z,100688.75
2023-02-25T21:22:09.670Z,100705.94
2023-02-25T21:24:37.368Z,100709.47
2023-02-25T21:27:05.267Z,100704.41
2023-02-25T21:29:34.383Z,100710.00
2023-02-25T21:32:02.110Z,100706.78
2023-02-25T21:34:32.929Z,100700.72
2023-02-25T21:37:00.695Z,100707.13
2023-02-25T21:39:28.390Z,100713.78
2023-02-25T21:41:56.272Z,100707.56
2023-02-25T21:44:24.222Z,100708.13
2023-02-25T21:46:53.316Z,100707.63
2023-02-25T21:49:21.189Z,100710.81
2023-02-25T21:51:49.285Z,100719.75
2023-02-25T21:54:18.405Z,100712.69
2023-02-25T21:56:46.261Z,100711.00
2023-02-25T21:59:14.103Z,100701.56
2023-02-25T22:01:43.043Z,100707.28
2023-02-25T22:04:14.235Z,100717.72
2023-02-25T22:06:43.010Z,100722.88
2023-02-25T22:09:10.769Z,100721.94
2023-02-25T22:11:39.649Z,100699.56
2023-02-25T22:14:12.336Z,100715.31
2023-02-25T22:16:41.004Z,100715.38
2023-02-25T22:19:08.883Z,100712.78
2023-02-25T22:21:38.084Z,100717.41
2023-02-25T22:24:06.793Z,100725.47
2023-02-25T22:26:38.678Z,100725.66
2023-02-25T22:29:08.945Z,100723.63
2023-02-25T22:31:40.963Z,100721.09
2023-02-25T22:34:09.205Z,100717.31
2023-02-25T22:36:38.522Z,100731.53
2023-02-25T22:39:07.454Z,100728.59
2023-02-25T22:41:37.693Z,100738.81
2023-02-25T22:44:08.374Z,100741.34
2023-02-25T22:46:37.804Z,100748.56
2023-02-25T22:49:27.198Z,100750.59
2023-02-25T22:51:56.312Z,100759.63
2023-02-25T22:54:24.035Z,100750.59
2023-02-25T22:56:51.849Z,100761.19
2023-02-25T22:59:19.910Z,100750.75
2023-02-25T23:01:47.740Z,100756.91
2023-02-25T23:04:15.636Z,100750.56
2023-02-25T23:06:44.954Z,100763.53
2023-02-25T23:09:15.385Z,100771.28
2023-02-25T23:11:44.446Z,100773.00
2023-02-25T23:14:13.476Z,100766.91
2023-02-25T23:16:43.142Z,100765.22
2023-02-25T23:19:14.335Z,100770.03
2023-02-25T23:21:42.538Z,100765.13
2023-02-25T23:24:13.887Z,100776.84
2023-02-25T23:26:43.852Z,100770.13
2023-02-25T23:29:13.319Z,100772.66
2023-02-25T23:31:44.323Z,100767.66
2023-02-25T23:34:15.488Z,100757.44
2023-02-25T23:36:46.030Z,100743.81
2023-02-25T23:39:15.340Z,100764.34
2023-02-25T23:41:45.188Z,100774.25
2023-02-25T23:44:13.976Z,100774.75
2023-02-25T23:46:44.054Z,100784.50
2023-02-25T23:49:14.503Z,100791.09
2023-02-25T23:51:43.265Z,100785.88
2023-02-25T23:54:14.253Z,100783.13
2023-02-25T23:56:42.087Z,100783.72
2023-02-25T23:59:11.503Z,100797.06
